sensor_id;sensor_type;location;lat;lon;timestamp;P1;durP1;ratioP1;P2;durP2;ratioP2
5363;SDS011;2705;41.410;2.160;2023-11-19T00:01:29;11.53;;;5.03;;
5363;SDS011;2705;41.410;2.160;2023-11-19T00:04:00;13.37;;;4.87;;
5363;SDS011;2705;41.410;2.160;2023-11-19T00:06:32;10.27;;;5.27;;
5363;SDS011;2705;41.410;2.160;2023-11-19T00:09:02;10.53;;;4.90;;
5363;SDS011;2705;41.410;2.160;2023-11-19T00:11:33;12.50;;;4.33;;
5363;SDS011;2705;41.410;2.160;2023-11-19T00:14:03;8.50;;;4.23;;
5363;SDS011;2705;41.410;2.160;2023-11-19T00:16:35;7.70;;;3.63;;
5363;SDS011;2705;41.410;2.160;2023-11-19T00:19:05;10.13;;;4.60;;
5363;SDS011;2705;41.410;2.160;2023-11-19T00:21:35;9.50;;;5.03;;
5363;SDS011;2705;41.410;2.160;2023-11-19T00:24:04;9.87;;;5.60;;
5363;SDS011;2705;41.410;2.160;2023-11-19T00:26:37;7.20;;;4.67;;
5363;SDS011;2705;41.410;2.160;2023-11-19T00:29:06;9.40;;;4.10;;
5363;SDS011;2705;41.410;2.160;2023-11-19T00:31:35;7.60;;;3.80;;
5363;SDS011;2705;41.410;2.160;2023-11-19T00:34:04;12.10;;;4.33;;
5363;SDS011;2705;41.410;2.160;2023-11-19T00:36:34;9.87;;;3.90;;
5363;SDS011;2705;41.410;2.160;2023-11-19T00:39:03;6.17;;;3.67;;
5363;SDS011;2705;41.410;2.160;2023-11-19T00:41:32;13.70;;;4.60;;
5363;SDS011;2705;41.410;2.160;2023-11-19T00:44:03;6.03;;;3.80;;
5363;SDS011;2705;41.410;2.160;2023-11-19T00:46:32;8.10;;;3.97;;
5363;SDS011;2705;41.410;2.160;2023-11-19T00:49:01;7.20;;;3.50;;
5363;SDS011;2705;41.410;2.160;2023-11-19T00:51:30;4.70;;;3.60;;
5363;SDS011;2705;41.410;2.160;2023-11-19T00:53:59;13.20;;;3.73;;
5363;SDS011;2705;41.410;2.160;2023-11-19T00:56:29;12.43;;;3.80;;
5363;SDS011;2705;41.410;2.160;2023-11-19T00:58:58;11.63;;;3.43;;
5363;SDS011;2705;41.410;2.160;2023-11-19T01:01:29;8.90;;;4.07;;
5363;SDS011;2705;41.410;2.160;2023-11-19T01:03:58;6.00;;;3.37;;
5363;SDS011;2705;41.410;2.160;2023-11-19T01:06:28;11.00;;;3.77;;
5363;SDS011;2705;41.410;2.160;2023-11-19T01:08:57;11.00;;;3.20;;
5363;SDS011;2705;41.410;2.160;2023-11-19T01:11:27;8.90;;;4.07;;
5363;SDS011;2705;41.410;2.160;2023-11-19T01:13:56;5.80;;;3.47;;
5363;SDS011;2705;41.410;2.160;2023-11-19T01:16:26;7.17;;;3.90;;
5363;SDS011;2705;41.410;2.160;2023-11-19T01:18:56;14.97;;;4.50;;
5363;SDS011;2705;41.410;2.160;2023-11-19T01:21:38;10.30;;;4.73;;
5363;SDS011;2705;41.410;2.160;2023-11-19T01:24:07;7.40;;;3.80;;
5363;SDS011;2705;41.410;2.160;2023-11-19T01:26:40;8.30;;;4.30;;
5363;SDS011;2705;41.410;2.160;2023-11-19T01:29:12;9.23;;;4.70;;
5363;SDS011;2705;41.410;2.160;2023-11-19T01:31:42;8.80;;;3.30;;
5363;SDS011;2705;41.410;2.160;2023-11-19T01:34:13;7.03;;;3.47;;
5363;SDS011;2705;41.410;2.160;2023-11-19T01:36:43;3.87;;;3.07;;
5363;SDS011;2705;41.410;2.160;2023-11-19T01:39:13;7.20;;;3.27;;
5363;SDS011;2705;41.410;2.160;2023-11-19T01:41:43;4.80;;;3.17;;
5363;SDS011;2705;41.410;2.160;2023-11-19T01:44:12;7.60;;;3.37;;
5363;SDS011;2705;41.410;2.160;2023-11-19T01:46:41;11.00;;;4.00;;
5363;SDS011;2705;41.410;2.160;2023-11-19T01:49:15;8.33;;;4.97;;
5363;SDS011;2705;41.410;2.160;2023-11-19T01:51:46;8.40;;;4.00;;
5363;SDS011;2705;41.410;2.160;2023-11-19T01:54:16;9.93;;;4.77;;
5363;SDS011;2705;41.410;2.160;2023-11-19T01:56:46;7.50;;;3.60;;
5363;SDS011;2705;41.410;2.160;2023-11-19T01:59:16;7.20;;;2.60;;
5363;SDS011;2705;41.410;2.160;2023-11-19T02:01:47;6.00;;;2.90;;
5363;SDS011;2705;41.410;2.160;2023-11-19T02:04:28;7.57;;;3.40;;
5363;SDS011;2705;41.410;2.160;2023-11-19T02:06:58;8.70;;;4.13;;
5363;SDS011;2705;41.410;2.160;2023-11-19T02:09:28;9.57;;;5.60;;
5363;SDS011;2705;41.410;2.160;2023-11-19T02:11:57;6.63;;;3.83;;
5363;SDS011;2705;41.410;2.160;2023-11-19T02:14:26;11.70;;;3.37;;
5363;SDS011;2705;41.410;2.160;2023-11-19T02:16:56;8.23;;;3.80;;
5363;SDS011;2705;41.410;2.160;2023-11-19T02:19:25;4.50;;;3.23;;
5363;SDS011;2705;41.410;2.160;2023-11-19T02:21:55;6.73;;;3.83;;
5363;SDS011;2705;41.410;2.160;2023-11-19T02:24:25;7.33;;;4.73;;
5363;SDS011;2705;41.410;2.160;2023-11-19T02:26:57;9.77;;;3.80;;
5363;SDS011;2705;41.410;2.160;2023-11-19T02:29:32;8.00;;;4.07;;
5363;SDS011;2705;41.410;2.160;2023-11-19T02:32:02;9.60;;;4.00;;
5363;SDS011;2705;41.410;2.160;2023-11-19T02:34:32;5.50;;;4.30;;
5363;SDS011;2705;41.410;2.160;2023-11-19T02:37:01;5.53;;;3.10;;
5363;SDS011;2705;41.410;2.160;2023-11-19T02:39:30;9.50;;;4.33;;
5363;SDS011;2705;41.410;2.160;2023-11-19T02:42:00;8.23;;;3.60;;
5363;SDS011;2705;41.410;2.160;2023-11-19T02:44:29;5.67;;;3.13;;
5363;SDS011;2705;41.410;2.160;2023-11-19T02:47:00;10.57;;;3.77;;
5363;SDS011;2705;41.410;2.160;2023-11-19T02:49:30;11.40;;;4.20;;
5363;SDS011;2705;41.410;2.160;2023-11-19T02:52:00;8.13;;;3.10;;
5363;SDS011;2705;41.410;2.160;2023-11-19T02:54:30;7.20;;;4.10;;
5363;SDS011;2705;41.410;2.160;2023-11-19T02:57:02;7.10;;;3.20;;
5363;SDS011;2705;41.410;2.160;2023-11-19T02:59:32;6.00;;;2.90;;
5363;SDS011;2705;41.410;2.160;2023-11-19T03:02:07;9.67;;;3.23;;
5363;SDS011;2705;41.410;2.160;2023-11-19T03:04:40;5.80;;;3.13;;
5363;SDS011;2705;41.410;2.160;2023-11-19T03:07:13;5.50;;;3.50;;
5363;SDS011;2705;41.410;2.160;2023-11-19T03:09:42;5.37;;;3.60;;
5363;SDS011;2705;41.410;2.160;2023-11-19T03:12:11;6.80;;;3.30;;
5363;SDS011;2705;41.410;2.160;2023-11-19T03:14:41;6.67;;;3.33;;
5363;SDS011;2705;41.410;2.160;2023-11-19T03:17:13;5.20;;;3.53;;
5363;SDS011;2705;41.410;2.160;2023-11-19T03:19:43;11.60;;;3.80;;
5363;SDS011;2705;41.410;2.160;2023-11-19T03:22:12;5.40;;;3.60;;
5363;SDS011;2705;41.410;2.160;2023-11-19T03:24:42;11.73;;;3.70;;
5363;SDS011;2705;41.410;2.160;2023-11-19T03:27:11;6.40;;;3.97;;
5363;SDS011;2705;41.410;2.160;2023-11-19T03:29:43;13.03;;;4.00;;
5363;SDS011;2705;41.410;2.160;2023-11-19T03:32:14;4.97;;;3.70;;
5363;SDS011;2705;41.410;2.160;2023-11-19T03:34:43;19.37;;;4.63;;
5363;SDS011;2705;41.410;2.160;2023-11-19T03:37:12;6.70;;;4.10;;
5363;SDS011;2705;41.410;2.160;2023-11-19T03:39:44;6.50;;;4.37;;
5363;SDS011;2705;41.410;2.160;2023-11-19T03:42:13;9.00;;;4.27;;
5363;SDS011;2705;41.410;2.160;2023-11-19T03:44:42;7.90;;;4.23;;
5363;SDS011;2705;41.410;2.160;2023-11-19T03:47:11;5.73;;;3.70;;
5363;SDS011;2705;41.410;2.160;2023-11-19T03:49:42;9.47;;;4.00;;
5363;SDS011;2705;41.410;2.160;2023-11-19T03:52:11;6.60;;;3.70;;
5363;SDS011;2705;41.410;2.160;2023-11-19T03:54:47;7.67;;;3.93;;
5363;SDS011;2705;41.410;2.160;2023-11-19T03:57:16;5.60;;;4.00;;
5363;SDS011;2705;41.410;2.160;2023-11-19T03:59:46;7.17;;;3.83;;
5363;SDS011;2705;41.410;2.160;2023-11-19T04:02:17;7.40;;;3.77;;
5363;SDS011;2705;41.410;2.160;2023-11-19T04:04:46;6.70;;;3.80;;
5363;SDS011;2705;41.410;2.160;2023-11-19T04:07:16;9.33;;;3.77;;
5363;SDS011;2705;41.410;2.160;2023-11-19T04:09:45;6.40;;;3.93;;
5363;SDS011;2705;41.410;2.160;2023-11-19T04:12:14;5.77;;;3.53;;
5363;SDS011;2705;41.410;2.160;2023-11-19T04:14:43;7.13;;;3.83;;
5363;SDS011;2705;41.410;2.160;2023-11-19T04:17:12;8.30;;;3.70;;
5363;SDS011;2705;41.410;2.160;2023-11-19T04:19:43;6.40;;;4.30;;
5363;SDS011;2705;41.410;2.160;2023-11-19T04:22:12;9.60;;;3.67;;
5363;SDS011;2705;41.410;2.160;2023-11-19T04:24:41;6.40;;;3.90;;
5363;SDS011;2705;41.410;2.160;2023-11-19T04:27:13;8.63;;;4.63;;
5363;SDS011;2705;41.410;2.160;2023-11-19T04:29:42;4.50;;;3.23;;
5363;SDS011;2705;41.410;2.160;2023-11-19T04:32:14;8.43;;;4.50;;
5363;SDS011;2705;41.410;2.160;2023-11-19T04:34:44;5.57;;;3.87;;
5363;SDS011;2705;41.410;2.160;2023-11-19T04:37:13;6.20;;;3.90;;
5363;SDS011;2705;41.410;2.160;2023-11-19T04:39:43;11.00;;;4.03;;
5363;SDS011;2705;41.410;2.160;2023-11-19T04:42:13;5.93;;;3.27;;
5363;SDS011;2705;41.410;2.160;2023-11-19T04:44:44;5.47;;;3.70;;
5363;SDS011;2705;41.410;2.160;2023-11-19T04:47:13;6.70;;;4.07;;
5363;SDS011;2705;41.410;2.160;2023-11-19T04:49:44;6.57;;;4.20;;
5363;SDS011;2705;41.410;2.160;2023-11-19T04:52:13;5.40;;;3.67;;
5363;SDS011;2705;41.410;2.160;2023-11-19T04:54:42;8.03;;;4.00;;
5363;SDS011;2705;41.410;2.160;2023-11-19T04:57:11;4.90;;;3.53;;
5363;SDS011;2705;41.410;2.160;2023-11-19T04:59:40;6.43;;;3.70;;
5363;SDS011;2705;41.410;2.160;2023-11-19T05:02:09;9.07;;;4.50;;
5363;SDS011;2705;41.410;2.160;2023-11-19T05:04:43;7.27;;;4.07;;
5363;SDS011;2705;41.410;2.160;2023-11-19T05:07:14;7.40;;;3.70;;
5363;SDS011;2705;41.410;2.160;2023-11-19T05:09:43;5.87;;;3.97;;
5363;SDS011;2705;41.410;2.160;2023-11-19T05:12:12;6.83;;;4.03;;
5363;SDS011;2705;41.410;2.160;2023-11-19T05:14:41;15.00;;;4.43;;
5363;SDS011;2705;41.410;2.160;2023-11-19T05:17:17;7.33;;;4.17;;
5363;SDS011;2705;41.410;2.160;2023-11-19T05:19:47;7.37;;;4.20;;
5363;SDS011;2705;41.410;2.160;2023-11-19T05:22:17;9.40;;;4.10;;
5363;SDS011;2705;41.410;2.160;2023-11-19T05:24:47;9.97;;;5.03;;
5363;SDS011;2705;41.410;2.160;2023-11-19T05:27:17;8.53;;;4.80;;
5363;SDS011;2705;41.410;2.160;2023-11-19T05:29:46;11.17;;;4.40;;
5363;SDS011;2705;41.410;2.160;2023-11-19T05:32:15;10.50;;;4.83;;
5363;SDS011;2705;41.410;2.160;2023-11-19T05:34:44;12.33;;;5.13;;
5363;SDS011;2705;41.410;2.160;2023-11-19T05:37:18;9.10;;;4.00;;
5363;SDS011;2705;41.410;2.160;2023-11-19T05:39:48;10.80;;;5.20;;
5363;SDS011;2705;41.410;2.160;2023-11-19T05:42:17;6.70;;;4.40;;
5363;SDS011;2705;41.410;2.160;2023-11-19T05:44:47;11.20;;;4.80;;
5363;SDS011;2705;41.410;2.160;2023-11-19T05:47:16;16.17;;;4.60;;
5363;SDS011;2705;41.410;2.160;2023-11-19T05:49:45;9.53;;;4.97;;
5363;SDS011;2705;41.410;2.160;2023-11-19T05:52:14;8.73;;;4.70;;
5363;SDS011;2705;41.410;2.160;2023-11-19T05:54:44;8.67;;;4.80;;
5363;SDS011;2705;41.410;2.160;2023-11-19T05:57:18;8.10;;;5.23;;
5363;SDS011;2705;41.410;2.160;2023-11-19T05:59:50;6.50;;;5.00;;
5363;SDS011;2705;41.410;2.160;2023-11-19T06:02:20;6.47;;;4.63;;
5363;SDS011;2705;41.410;2.160;2023-11-19T06:04:49;11.83;;;5.30;;
5363;SDS011;2705;41.410;2.160;2023-11-19T06:07:19;9.00;;;4.67;;
5363;SDS011;2705;41.410;2.160;2023-11-19T06:09:49;10.60;;;5.30;;
5363;SDS011;2705;41.410;2.160;2023-11-19T06:12:19;16.03;;;5.60;;
5363;SDS011;2705;41.410;2.160;2023-11-19T06:14:48;7.53;;;4.73;;
5363;SDS011;2705;41.410;2.160;2023-11-19T06:17:17;8.30;;;4.73;;
5363;SDS011;2705;41.410;2.160;2023-11-19T06:19:46;9.93;;;4.83;;
5363;SDS011;2705;41.410;2.160;2023-11-19T06:22:15;14.10;;;5.43;;
5363;SDS011;2705;41.410;2.160;2023-11-19T06:24:44;10.07;;;5.27;;
5363;SDS011;2705;41.410;2.160;2023-11-19T06:27:16;10.27;;;5.40;;
5363;SDS011;2705;41.410;2.160;2023-11-19T06:29:45;9.03;;;5.00;;
5363;SDS011;2705;41.410;2.160;2023-11-19T06:32:14;12.23;;;5.93;;
5363;SDS011;2705;41.410;2.160;2023-11-19T06:34:43;9.50;;;5.03;;
5363;SDS011;2705;41.410;2.160;2023-11-19T06:37:12;15.00;;;5.90;;
5363;SDS011;2705;41.410;2.160;2023-11-19T06:39:41;8.10;;;6.07;;
5363;SDS011;2705;41.410;2.160;2023-11-19T06:42:11;11.90;;;5.03;;
5363;SDS011;2705;41.410;2.160;2023-11-19T06:44:41;13.13;;;6.10;;
5363;SDS011;2705;41.410;2.160;2023-11-19T06:47:11;10.00;;;5.40;;
5363;SDS011;2705;41.410;2.160;2023-11-19T06:49:40;8.40;;;5.63;;
5363;SDS011;2705;41.410;2.160;2023-11-19T06:52:11;14.07;;;5.60;;
5363;SDS011;2705;41.410;2.160;2023-11-19T06:54:41;13.03;;;5.93;;
5363;SDS011;2705;41.410;2.160;2023-11-19T06:57:10;21.27;;;5.90;;
5363;SDS011;2705;41.410;2.160;2023-11-19T06:59:39;10.47;;;5.97;;
5363;SDS011;2705;41.410;2.160;2023-11-19T07:02:11;14.43;;;5.40;;
5363;SDS011;2705;41.410;2.160;2023-11-19T07:04:41;10.27;;;6.07;;
5363;SDS011;2705;41.410;2.160;2023-11-19T07:07:11;11.33;;;5.67;;
5363;SDS011;2705;41.410;2.160;2023-11-19T07:09:42;10.20;;;5.20;;
5363;SDS011;2705;41.410;2.160;2023-11-19T07:12:11;13.97;;;5.10;;
5363;SDS011;2705;41.410;2.160;2023-11-19T07:14:42;10.40;;;5.70;;
5363;SDS011;2705;41.410;2.160;2023-11-19T07:17:12;10.23;;;5.40;;
5363;SDS011;2705;41.410;2.160;2023-11-19T07:19:42;9.67;;;5.40;;
5363;SDS011;2705;41.410;2.160;2023-11-19T07:22:11;8.07;;;5.90;;
5363;SDS011;2705;41.410;2.160;2023-11-19T07:24:41;14.07;;;5.37;;
5363;SDS011;2705;41.410;2.160;2023-11-19T07:27:10;9.70;;;5.90;;
5363;SDS011;2705;41.410;2.160;2023-11-19T07:29:40;9.83;;;5.40;;
5363;SDS011;2705;41.410;2.160;2023-11-19T07:32:13;11.70;;;6.00;;
5363;SDS011;2705;41.410;2.160;2023-11-19T07:34:43;10.83;;;5.20;;
5363;SDS011;2705;41.410;2.160;2023-11-19T07:37:12;10.37;;;6.63;;
5363;SDS011;2705;41.410;2.160;2023-11-19T07:39:41;10.87;;;6.10;;
5363;SDS011;2705;41.410;2.160;2023-11-19T07:42:11;12.37;;;7.10;;
5363;SDS011;2705;41.410;2.160;2023-11-19T07:44:40;10.93;;;5.60;;
5363;SDS011;2705;41.410;2.160;2023-11-19T07:47:11;13.07;;;5.77;;
5363;SDS011;2705;41.410;2.160;2023-11-19T07:49:41;12.33;;;6.27;;
5363;SDS011;2705;41.410;2.160;2023-11-19T07:52:11;9.17;;;5.90;;
5363;SDS011;2705;41.410;2.160;2023-11-19T07:54:44;13.53;;;5.90;;
5363;SDS011;2705;41.410;2.160;2023-11-19T07:57:13;11.17;;;6.50;;
5363;SDS011;2705;41.410;2.160;2023-11-19T07:59:42;11.73;;;6.40;;
5363;SDS011;2705;41.410;2.160;2023-11-19T08:02:13;9.03;;;6.03;;
5363;SDS011;2705;41.410;2.160;2023-11-19T08:04:42;14.50;;;6.60;;
5363;SDS011;2705;41.410;2.160;2023-11-19T08:07:13;12.07;;;6.90;;
5363;SDS011;2705;41.410;2.160;2023-11-19T08:09:43;14.67;;;6.60;;
5363;SDS011;2705;41.410;2.160;2023-11-19T08:12:12;13.20;;;7.70;;
5363;SDS011;2705;41.410;2.160;2023-11-19T08:14:42;15.50;;;7.43;;
5363;SDS011;2705;41.410;2.160;2023-11-19T08:17:13;16.10;;;7.27;;
5363;SDS011;2705;41.410;2.160;2023-11-19T08:19:43;22.23;;;8.23;;
5363;SDS011;2705;41.410;2.160;2023-11-19T08:22:12;11.27;;;7.23;;
5363;SDS011;2705;41.410;2.160;2023-11-19T08:24:41;10.00;;;6.90;;
5363;SDS011;2705;41.410;2.160;2023-11-19T08:27:10;18.53;;;7.63;;
5363;SDS011;2705;41.410;2.160;2023-11-19T08:29:39;18.00;;;8.37;;
5363;SDS011;2705;41.410;2.160;2023-11-19T08:32:08;14.13;;;9.07;;
5363;SDS011;2705;41.410;2.160;2023-11-19T08:34:39;16.00;;;7.53;;
5363;SDS011;2705;41.410;2.160;2023-11-19T08:37:08;11.73;;;7.90;;
5363;SDS011;2705;41.410;2.160;2023-11-19T08:39:37;14.63;;;8.77;;
5363;SDS011;2705;41.410;2.160;2023-11-19T08:42:06;16.00;;;8.20;;
5363;SDS011;2705;41.410;2.160;2023-11-19T08:44:35;14.77;;;7.23;;
5363;SDS011;2705;41.410;2.160;2023-11-19T08:47:04;16.33;;;8.60;;
5363;SDS011;2705;41.410;2.160;2023-11-19T08:49:33;14.03;;;8.73;;
5363;SDS011;2705;41.410;2.160;2023-11-19T08:52:04;15.00;;;7.90;;
5363;SDS011;2705;41.410;2.160;2023-11-19T08:54:34;15.70;;;7.40;;
5363;SDS011;2705;41.410;2.160;2023-11-19T08:57:03;17.20;;;9.33;;
5363;SDS011;2705;41.410;2.160;2023-11-19T08:59:34;17.13;;;8.60;;
5363;SDS011;2705;41.410;2.160;2023-11-19T09:02:05;9.83;;;7.03;;
5363;SDS011;2705;41.410;2.160;2023-11-19T09:04:35;12.63;;;6.50;;
5363;SDS011;2705;41.410;2.160;2023-11-19T09:07:06;11.30;;;6.10;;
5363;SDS011;2705;41.410;2.160;2023-11-19T09:09:36;21.90;;;9.70;;
5363;SDS011;2705;41.410;2.160;2023-11-19T09:12:05;11.97;;;5.80;;
5363;SDS011;2705;41.410;2.160;2023-11-19T09:14:34;8.83;;;6.00;;
5363;SDS011;2705;41.410;2.160;2023-11-19T09:17:03;8.97;;;6.17;;
5363;SDS011;2705;41.410;2.160;2023-11-19T09:19:33;14.70;;;7.10;;
5363;SDS011;2705;41.410;2.160;2023-11-19T09:22:02;7.97;;;5.53;;
5363;SDS011;2705;41.410;2.160;2023-11-19T09:24:33;12.20;;;6.10;;
5363;SDS011;2705;41.410;2.160;2023-11-19T09:27:02;9.60;;;5.80;;
5363;SDS011;2705;41.410;2.160;2023-11-19T09:29:32;9.23;;;5.90;;
5363;SDS011;2705;41.410;2.160;2023-11-19T09:32:01;15.30;;;6.60;;
5363;SDS011;2705;41.410;2.160;2023-11-19T09:34:32;12.97;;;6.13;;
5363;SDS011;2705;41.410;2.160;2023-11-19T09:37:01;28.17;;;7.17;;
5363;SDS011;2705;41.410;2.160;2023-11-19T09:39:30;11.03;;;5.97;;
5363;SDS011;2705;41.410;2.160;2023-11-19T09:42:01;13.67;;;6.80;;
5363;SDS011;2705;41.410;2.160;2023-11-19T09:44:30;12.37;;;7.00;;
5363;SDS011;2705;41.410;2.160;2023-11-19T09:46:59;14.50;;;6.40;;
5363;SDS011;2705;41.410;2.160;2023-11-19T09:49:28;10.93;;;6.47;;
5363;SDS011;2705;41.410;2.160;2023-11-19T09:52:01;10.50;;;5.50;;
5363;SDS011;2705;41.410;2.160;2023-11-19T09:54:32;14.63;;;8.23;;
5363;SDS011;2705;41.410;2.160;2023-11-19T09:57:02;10.30;;;5.80;;
5363;SDS011;2705;41.410;2.160;2023-11-19T09:59:33;12.03;;;6.03;;
5363;SDS011;2705;41.410;2.160;2023-11-19T10:02:02;10.63;;;7.30;;
5363;SDS011;2705;41.410;2.160;2023-11-19T10:04:34;13.50;;;7.70;;
5363;SDS011;2705;41.410;2.160;2023-11-19T10:07:05;13.60;;;6.30;;
5363;SDS011;2705;41.410;2.160;2023-11-19T10:09:35;10.80;;;6.00;;
5363;SDS011;2705;41.410;2.160;2023-11-19T10:12:04;8.73;;;5.97;;
5363;SDS011;2705;41.410;2.160;2023-11-19T10:14:33;11.60;;;6.03;;
5363;SDS011;2705;41.410;2.160;2023-11-19T10:17:07;16.43;;;6.07;;
5363;SDS011;2705;41.410;2.160;2023-11-19T10:19:36;10.00;;;7.00;;
5363;SDS011;2705;41.410;2.160;2023-11-19T10:22:08;9.40;;;6.57;;
5363;SDS011;2705;41.410;2.160;2023-11-19T10:24:39;13.50;;;6.60;;
5363;SDS011;2705;41.410;2.160;2023-11-19T10:27:15;12.57;;;7.20;;
5363;SDS011;2705;41.410;2.160;2023-11-19T10:29:45;10.90;;;7.13;;
5363;SDS011;2705;41.410;2.160;2023-11-19T10:32:14;10.23;;;6.13;;
5363;SDS011;2705;41.410;2.160;2023-11-19T10:35:01;10.83;;;6.60;;
5363;SDS011;2705;41.410;2.160;2023-11-19T10:37:34;11.00;;;6.30;;
5363;SDS011;2705;41.410;2.160;2023-11-19T10:40:07;10.57;;;7.03;;
5363;SDS011;2705;41.410;2.160;2023-11-19T10:42:37;11.00;;;6.40;;
5363;SDS011;2705;41.410;2.160;2023-11-19T10:45:16;12.73;;;7.50;;
5363;SDS011;2705;41.410;2.160;2023-11-19T10:47:52;16.97;;;8.50;;
5363;SDS011;2705;41.410;2.160;2023-11-19T10:50:22;14.50;;;7.17;;
5363;SDS011;2705;41.410;2.160;2023-11-19T10:52:52;23.20;;;9.37;;
5363;SDS011;2705;41.410;2.160;2023-11-19T10:55:28;15.50;;;8.30;;
5363;SDS011;2705;41.410;2.160;2023-11-19T10:57:59;21.90;;;9.43;;
5363;SDS011;2705;41.410;2.160;2023-11-19T11:00:33;11.63;;;8.40;;
5363;SDS011;2705;41.410;2.160;2023-11-19T11:03:11;13.90;;;7.70;;
5363;SDS011;2705;41.410;2.160;2023-11-19T11:05:46;10.70;;;6.90;;
5363;SDS011;2705;41.410;2.160;2023-11-19T11:08:17;10.70;;;6.77;;
5363;SDS011;2705;41.410;2.160;2023-11-19T11:10:51;16.50;;;8.40;;
5363;SDS011;2705;41.410;2.160;2023-11-19T11:13:24;10.80;;;6.63;;
5363;SDS011;2705;41.410;2.160;2023-11-19T11:15:55;18.27;;;9.97;;
5363;SDS011;2705;41.410;2.160;2023-11-19T11:18:25;19.07;;;7.77;;
5363;SDS011;2705;41.410;2.160;2023-11-19T11:20:56;14.43;;;7.67;;
5363;SDS011;2705;41.410;2.160;2023-11-19T11:23:33;19.40;;;8.60;;
5363;SDS011;2705;41.410;2.160;2023-11-19T11:26:27;15.03;;;7.63;;
5363;SDS011;2705;41.410;2.160;2023-11-19T11:29:12;17.07;;;8.80;;
5363;SDS011;2705;41.410;2.160;2023-11-19T11:31:55;14.80;;;8.07;;
5363;SDS011;2705;41.410;2.160;2023-11-19T11:34:41;14.17;;;7.93;;
5363;SDS011;2705;41.410;2.160;2023-11-19T11:37:25;15.97;;;7.43;;
5363;SDS011;2705;41.410;2.160;2023-11-19T11:40:01;14.03;;;8.37;;
5363;SDS011;2705;41.410;2.160;2023-11-19T11:42:39;21.10;;;8.30;;
5363;SDS011;2705;41.410;2.160;2023-11-19T11:45:09;15.83;;;9.23;;
5363;SDS011;2705;41.410;2.160;2023-11-19T11:50:51;21.03;;;8.90;;
5363;SDS011;2705;41.410;2.160;2023-11-19T11:53:22;16.40;;;8.50;;
5363;SDS011;2705;41.410;2.160;2023-11-19T11:55:52;20.63;;;9.03;;
5363;SDS011;2705;41.410;2.160;2023-11-19T11:58:26;21.40;;;9.77;;
5363;SDS011;2705;41.410;2.160;2023-11-19T12:01:00;18.73;;;9.03;;
5363;SDS011;2705;41.410;2.160;2023-11-19T12:03:56;29.40;;;9.50;;
5363;SDS011;2705;41.410;2.160;2023-11-19T12:06:26;20.07;;;9.80;;
5363;SDS011;2705;41.410;2.160;2023-11-19T12:08:59;17.70;;;9.27;;
5363;SDS011;2705;41.410;2.160;2023-11-19T12:11:28;15.87;;;9.07;;
5363;SDS011;2705;41.410;2.160;2023-11-19T12:14:01;16.60;;;10.10;;
5363;SDS011;2705;41.410;2.160;2023-11-19T12:16:30;20.83;;;10.30;;
5363;SDS011;2705;41.410;2.160;2023-11-19T12:19:04;25.93;;;11.00;;
5363;SDS011;2705;41.410;2.160;2023-11-19T12:21:34;21.87;;;11.30;;
5363;SDS011;2705;41.410;2.160;2023-11-19T12:24:05;18.73;;;11.33;;
5363;SDS011;2705;41.410;2.160;2023-11-19T12:26:36;17.00;;;10.50;;
5363;SDS011;2705;41.410;2.160;2023-11-19T12:29:08;24.57;;;11.70;;
5363;SDS011;2705;41.410;2.160;2023-11-19T12:31:37;22.53;;;11.57;;
5363;SDS011;2705;41.410;2.160;2023-11-19T12:34:09;23.10;;;12.50;;
5363;SDS011;2705;41.410;2.160;2023-11-19T12:36:40;20.57;;;11.77;;
5363;SDS011;2705;41.410;2.160;2023-11-19T12:39:11;27.40;;;12.17;;
5363;SDS011;2705;41.410;2.160;2023-11-19T12:41:50;19.67;;;11.70;;
5363;SDS011;2705;41.410;2.160;2023-11-19T12:44:23;22.20;;;11.20;;
5363;SDS011;2705;41.410;2.160;2023-11-19T12:47:02;31.47;;;12.70;;
5363;SDS011;2705;41.410;2.160;2023-11-19T12:49:34;24.87;;;12.53;;
5363;SDS011;2705;41.410;2.160;2023-11-19T12:52:11;20.70;;;11.80;;
5363;SDS011;2705;41.410;2.160;2023-11-19T12:54:40;24.93;;;13.30;;
5363;SDS011;2705;41.410;2.160;2023-11-19T12:57:09;29.83;;;14.63;;
5363;SDS011;2705;41.410;2.160;2023-11-19T12:59:40;28.10;;;13.10;;
5363;SDS011;2705;41.410;2.160;2023-11-19T13:02:10;28.33;;;13.50;;
5363;SDS011;2705;41.410;2.160;2023-11-19T13:04:38;28.97;;;13.73;;
5363;SDS011;2705;41.410;2.160;2023-11-19T13:07:08;31.87;;;13.40;;
5363;SDS011;2705;41.410;2.160;2023-11-19T13:09:38;22.03;;;13.10;;
5363;SDS011;2705;41.410;2.160;2023-11-19T13:12:13;26.83;;;13.43;;
5363;SDS011;2705;41.410;2.160;2023-11-19T13:14:45;23.60;;;12.53;;
5363;SDS011;2705;41.410;2.160;2023-11-19T13:17:15;28.30;;;15.73;;
5363;SDS011;2705;41.410;2.160;2023-11-19T13:19:46;22.67;;;13.47;;
5363;SDS011;2705;41.410;2.160;2023-11-19T13:22:18;29.40;;;13.40;;
5363;SDS011;2705;41.410;2.160;2023-11-19T13:24:46;28.57;;;15.63;;
5363;SDS011;2705;41.410;2.160;2023-11-19T13:27:15;28.53;;;12.50;;
5363;SDS011;2705;41.410;2.160;2023-11-19T13:29:46;20.40;;;12.20;;
5363;SDS011;2705;41.410;2.160;2023-11-19T13:32:15;20.00;;;11.40;;
5363;SDS011;2705;41.410;2.160;2023-11-19T13:34:44;18.60;;;12.23;;
5363;SDS011;2705;41.410;2.160;2023-11-19T13:37:13;27.60;;;13.47;;
5363;SDS011;2705;41.410;2.160;2023-11-19T13:39:42;20.30;;;12.13;;
5363;SDS011;2705;41.410;2.160;2023-11-19T13:42:11;23.23;;;12.67;;
5363;SDS011;2705;41.410;2.160;2023-11-19T13:44:40;23.87;;;13.50;;
5363;SDS011;2705;41.410;2.160;2023-11-19T13:47:11;18.20;;;11.87;;
5363;SDS011;2705;41.410;2.160;2023-11-19T13:49:40;24.50;;;12.20;;
5363;SDS011;2705;41.410;2.160;2023-11-19T13:52:09;25.47;;;11.53;;
5363;SDS011;2705;41.410;2.160;2023-11-19T13:54:38;22.17;;;12.43;;
5363;SDS011;2705;41.410;2.160;2023-11-19T13:57:08;17.60;;;10.80;;
5363;SDS011;2705;41.410;2.160;2023-11-19T13:59:39;20.63;;;10.87;;
5363;SDS011;2705;41.410;2.160;2023-11-19T14:02:08;19.63;;;11.07;;
5363;SDS011;2705;41.410;2.160;2023-11-19T14:04:39;18.07;;;11.53;;
5363;SDS011;2705;41.410;2.160;2023-11-19T14:07:08;17.80;;;9.80;;
5363;SDS011;2705;41.410;2.160;2023-11-19T14:09:37;16.70;;;9.60;;
5363;SDS011;2705;41.410;2.160;2023-11-19T14:12:08;15.20;;;9.17;;
5363;SDS011;2705;41.410;2.160;2023-11-19T14:14:39;29.20;;;11.50;;
5363;SDS011;2705;41.410;2.160;2023-11-19T14:17:09;17.60;;;10.47;;
5363;SDS011;2705;41.410;2.160;2023-11-19T14:19:40;17.33;;;10.43;;
5363;SDS011;2705;41.410;2.160;2023-11-19T14:22:09;17.13;;;10.40;;
5363;SDS011;2705;41.410;2.160;2023-11-19T14:24:39;18.70;;;11.20;;
5363;SDS011;2705;41.410;2.160;2023-11-19T14:27:09;24.13;;;12.00;;
5363;SDS011;2705;41.410;2.160;2023-11-19T14:29:39;17.37;;;10.57;;
5363;SDS011;2705;41.410;2.160;2023-11-19T14:32:07;21.07;;;10.23;;
5363;SDS011;2705;41.410;2.160;2023-11-19T14:34:38;15.60;;;10.93;;
5363;SDS011;2705;41.410;2.160;2023-11-19T14:37:07;19.10;;;10.53;;
5363;SDS011;2705;41.410;2.160;2023-11-19T14:39:36;15.20;;;9.90;;
5363;SDS011;2705;41.410;2.160;2023-11-19T14:42:05;52.43;;;26.37;;
5363;SDS011;2705;41.410;2.160;2023-11-19T14:44:35;26.50;;;13.60;;
5363;SDS011;2705;41.410;2.160;2023-11-19T14:47:04;23.37;;;12.00;;
5363;SDS011;2705;41.410;2.160;2023-11-19T14:49:34;20.93;;;13.00;;
5363;SDS011;2705;41.410;2.160;2023-11-19T14:52:05;24.00;;;11.33;;
5363;SDS011;2705;41.410;2.160;2023-11-19T14:54:38;21.80;;;12.07;;
5363;SDS011;2705;41.410;2.160;2023-11-19T14:57:07;18.63;;;11.73;;
5363;SDS011;2705;41.410;2.160;2023-11-19T14:59:36;18.77;;;11.20;;
5363;SDS011;2705;41.410;2.160;2023-11-19T15:02:06;22.80;;;10.20;;
5363;SDS011;2705;41.410;2.160;2023-11-19T15:04:35;21.60;;;10.20;;
5363;SDS011;2705;41.410;2.160;2023-11-19T15:07:06;21.77;;;11.23;;
5363;SDS011;2705;41.410;2.160;2023-11-19T15:09:35;19.47;;;9.80;;
5363;SDS011;2705;41.410;2.160;2023-11-19T15:12:05;16.03;;;9.90;;
5363;SDS011;2705;41.410;2.160;2023-11-19T15:14:33;14.40;;;8.83;;
5363;SDS011;2705;41.410;2.160;2023-11-19T15:17:02;19.03;;;10.50;;
5363;SDS011;2705;41.410;2.160;2023-11-19T15:19:32;18.67;;;10.07;;
5363;SDS011;2705;41.410;2.160;2023-11-19T15:22:01;18.73;;;10.30;;
5363;SDS011;2705;41.410;2.160;2023-11-19T15:24:34;13.37;;;9.00;;
5363;SDS011;2705;41.410;2.160;2023-11-19T15:27:03;15.80;;;10.10;;